Time;durP1;ratioP1;P1;durP2;ratioP2;P2;SDS_P1;SDS_P2;PMS_P1;PMS_P2;Temp;Humidity;BMP_temperature;BMP_pressure;BME280_temperature;BME280_humidity;BME280_pressure;Samples;Min_cycle;Max_cycle;Signal;HPM_P1;HPM_P2
2021/11/21 00:00:33;;;;;;;;;22.00;19.00;;;;;7.62;74.82;100614.53;5078053;28;45242;-79
2021/11/21 00:02:59;;;;;;;;;22.25;18.00;;;;;7.55;75.40;100624.53;5077915;28;45272;-79
2021/11/21 00:05:24;;;;;;;;;25.75;22.50;;;;;7.50;75.18;100617.72;5077360;28;45186;-79
2021/11/21 00:07:50;;;;;;;;;28.25;24.75;;;;;7.49;75.43;100610.69;5077694;28;45294;-79
2021/11/21 00:10:15;;;;;;;;;29.00;22.00;;;;;7.49;75.47;100600.13;5077497;28;45118;-79
2021/11/21 00:12:41;;;;;;;;;28.50;25.00;;;;;7.49;76.09;100597.47;5077742;28;45106;-80
2021/11/21 00:15:07;;;;;;;;;23.50;20.75;;;;;7.46;75.95;100594.97;5077281;28;46137;-80
2021/11/21 00:17:32;;;;;;;;;29.75;25.00;;;;;7.48;76.26;100606.31;5077489;28;45773;-80
2021/11/21 00:19:58;;;;;;;;;26.75;18.50;;;;;7.51;76.46;100601.78;5077371;28;45083;-80
2021/11/21 00:22:25;;;;;;;;;26.75;23.00;;;;;7.55;76.47;100591.91;5059410;28;45263;-80
2021/11/21 00:24:51;;;;;;;;;25.75;21.00;;;;;7.51;76.42;100579.72;5076965;28;45361;-80
2021/11/21 00:27:17;;;;;;;;;25.00;21.25;;;;;7.62;76.33;100588.09;5077347;28;45325;-80
2021/11/21 00:29:43;;;;;;;;;24.25;21.00;;;;;7.65;76.26;100595.03;5077537;28;45275;-80
2021/11/21 00:32:09;;;;;;;;;24.00;22.00;;;;;7.65;76.46;100595.88;5077306;28;45302;-80
2021/11/21 00:34:34;;;;;;;;;27.50;20.50;;;;;7.67;75.91;100598.50;5058639;28;46994;-80
2021/11/21 00:37:00;;;;;;;;;24.25;20.00;;;;;7.68;76.06;100594.91;5077485;28;45364;-80
2021/11/21 00:39:25;;;;;;;;;28.25;21.00;;;;;7.68;75.66;100587.84;5077201;28;45363;-80
2021/11/21 00:41:52;;;;;;;;;23.50;20.00;;;;;7.68;75.52;100587.84;5059008;28;45217;-80
2021/11/21 00:44:18;;;;;;;;;22.50;19.50;;;;;7.67;75.82;100583.47;5076666;28;45217;-80
2021/11/21 00:46:43;;;;;;;;;27.25;21.50;;;;;7.67;75.89;100575.53;5076350;28;45163;-80
2021/11/21 00:49:14;;;;;;;;;22.00;20.50;;;;;7.66;75.79;100578.25;5077171;28;45270;-80
2021/11/21 00:51:39;;;;;;;;;23.50;18.00;;;;;7.66;75.97;100580.88;5077173;28;45191;-80
2021/11/21 00:54:10;;;;;;;;;24.25;23.00;;;;;7.64;75.80;100573.00;5076649;28;45144;-80
2021/11/21 00:56:36;;;;;;;;;20.75;20.00;;;;;7.68;75.93;100581.66;5076417;28;45828;-79
2021/11/21 00:59:02;;;;;;;;;21.50;18.00;;;;;7.67;75.88;100580.81;5076776;28;45265;-79
2021/11/21 01:01:27;;;;;;;;;27.00;21.75;;;;;7.65;75.71;100580.00;5077078;28;45225;-79
2021/11/21 01:03:56;;;;;;;;;25.25;19.00;;;;;7.66;75.72;100580.88;5075595;28;45234;-79
2021/11/21 01:06:22;;;;;;;;;25.50;19.50;;;;;7.62;75.92;100569.56;5076802;28;45552;-79
2021/11/21 01:08:47;;;;;;;;;23.00;18.75;;;;;7.67;75.99;100579.97;5076978;28;45260;-79
2021/11/21 01:11:13;;;;;;;;;21.50;19.50;;;;;7.68;75.70;100573.72;5076982;28;45194;-81
2021/11/21 01:13:38;;;;;;;;;19.75;18.50;;;;;7.65;75.53;100573.88;5076443;28;46094;-79
2021/11/21 01:16:04;;;;;;;;;27.50;19.75;;;;;7.68;75.94;100579.03;5076487;28;45312;-79
2021/11/21 01:18:31;;;;;;;;;29.00;21.75;;;;;7.63;75.23;100567.78;5076553;28;45167;-79
2021/11/21 01:20:56;;;;;;;;;22.50;18.50;;;;;7.62;75.78;100564.25;5076742;28;45183;-79
2021/11/21 01:23:22;;;;;;;;;24.00;16.75;;;;;7.63;75.82;100552.75;5076290;28;46183;-79
2021/11/21 01:25:48;;;;;;;;;29.25;23.75;;;;;7.58;75.39;100571.50;5076426;28;45880;-79
2021/11/21 01:28:14;;;;;;;;;27.50;23.75;;;;;7.51;76.00;100559.44;5076757;28;45276;-79
2021/11/21 01:30:40;;;;;;;;;28.25;20.75;;;;;7.48;75.86;100558.69;5076549;28;45301;-79
2021/11/21 01:33:06;;;;;;;;;24.00;21.50;;;;;7.46;76.06;100557.94;5076096;28;46013;-79
2021/11/21 01:35:32;;;;;;;;;27.25;21.00;;;;;7.47;75.71;100559.63;5076422;28;45274;-79
2021/11/21 01:37:58;;;;;;;;;23.50;21.75;;;;;7.47;75.59;100562.25;5076573;28;45206;-79
2021/11/21 01:40:24;;;;;;;;;27.75;21.00;;;;;7.17;75.98;100515.03;5076173;28;45281;-79
2021/11/21 01:42:51;;;;;;;;;25.25;23.50;;;;;7.40;75.97;100561.69;5075637;28;45485;-79
2021/11/21 01:45:16;;;;;;;;;23.25;19.75;;;;;7.38;75.85;100561.75;5075779;28;45688;-79
2021/11/21 01:47:44;;;;;;;;;23.50;22.25;;;;;7.34;75.85;100554.88;5076461;28;45245;-79
2021/11/21 01:50:13;;;;;;;;;24.25;20.00;;;;;7.38;75.90;100551.16;5076639;28;45182;-79
2021/11/21 01:52:38;;;;;;;;;31.75;28.00;;;;;7.36;75.93;100560.94;5076228;28;46348;-79
2021/11/21 01:55:05;;;;;;;;;28.75;23.75;;;;;7.35;76.25;100548.63;5075808;28;45249;-79
2021/11/21 01:57:30;;;;;;;;;26.50;24.00;;;;;7.31;76.11;100539.13;5076504;28;45297;-79
2021/11/21 01:59:59;;;;;;;;;29.25;26.00;;;;;7.36;76.06;100542.41;5078853;28;45242;-79
2021/11/21 02:02:25;;;;;;;;;28.75;27.00;;;;;7.36;76.14;100545.06;5061257;28;45966;-79
2021/11/21 02:04:51;;;;;;;;;33.50;27.50;;;;;7.33;76.50;100544.34;5079404;28;45198;-79
2021/11/21 02:07:16;;;;;;;;;31.50;28.75;;;;;7.31;76.10;100549.72;5079904;28;45293;-79
2021/11/21 02:09:41;;;;;;;;;33.25;27.50;;;;;7.28;76.46;100527.81;5078973;28;45229;-79
2021/11/21 02:12:07;;;;;;;;;27.00;25.00;;;;;7.30;76.62;100531.25;5079490;28;45147;-79
2021/11/21 02:14:32;;;;;;;;;33.50;32.25;;;;;7.25;76.76;100523.50;5079320;28;45184;-79
2021/11/21 02:16:58;;;;;;;;;26.00;22.75;;;;;7.25;76.53;100531.44;5079894;28;45108;-79
2021/11/21 02:19:23;;;;;;;;;33.50;27.00;;;;;7.18;76.67;100516.75;5078968;28;45193;-79
2021/11/21 02:21:48;;;;;;;;;33.50;26.00;;;;;7.20;76.46;100520.22;5079505;28;45329;-79
2021/11/21 02:24:14;;;;;;;;;31.75;25.00;;;;;7.21;76.80;100513.97;5079054;28;45397;-79
2021/11/21 02:26:39;;;;;;;;;30.00;25.25;;;;;7.19;76.38;100514.03;5061299;28;45228;-79
2021/11/21 02:29:05;;;;;;;;;32.75;24.50;;;;;7.17;76.34;100513.25;5079620;28;45210;-79
2021/11/21 02:31:31;;;;;;;;;31.50;24.25;;;;;7.16;76.55;100503.59;5078881;28;46125;-79
2021/11/21 02:33:56;;;;;;;;;32.75;28.00;;;;;7.14;76.45;100504.56;5079044;28;45176;-79
2021/11/21 02:36:23;;;;;;;;;37.75;29.50;;;;;7.09;76.72;100500.34;5079279;28;45198;-79
2021/11/21 02:38:49;;;;;;;;;35.75;26.50;;;;;7.09;76.87;100505.63;5078882;28;45281;-79
2021/11/21 02:41:15;;;;;;;;;34.25;27.75;;;;;7.08;76.48;100498.63;5078906;28;46199;-79
2021/11/21 02:43:43;;;;;;;;;30.25;27.75;;;;;7.08;76.77;100503.03;5079175;28;45160;-79
2021/11/21 02:46:09;;;;;;;;;29.00;23.25;;;;;7.04;76.81;100496.16;5078993;28;45154;-80
2021/11/21 02:48:35;;;;;;;;;37.00;27.75;;;;;7.03;76.57;100503.25;5078990;28;45199;-78
2021/11/21 02:51:04;;;;;;;;;33.00;25.00;;;;;7.00;76.90;100499.88;5078761;28;46447;-80
2021/11/21 02:53:33;;;;;;;;;33.00;25.50;;;;;6.99;76.99;100496.38;5078979;28;45917;-80
2021/11/21 02:56:03;;;;;;;;;31.25;22.50;;;;;6.97;76.95;100487.66;5078712;28;45190;-80
2021/11/21 02:58:32;;;;;;;;;31.50;25.25;;;;;6.98;77.20;100486.69;5078174;28;45300;-80
2021/11/21 03:01:01;;;;;;;;;29.50;25.50;;;;;7.00;76.83;100484.03;5078966;28;47649;-78
2021/11/21 03:03:26;;;;;;;;;36.75;30.25;;;;;6.91;77.06;100451.75;5078758;28;45276;-78
2021/11/21 03:05:52;;;;;;;;;27.75;24.00;;;;;6.98;77.15;100465.56;5078504;28;45300;-79
2021/11/21 03:08:17;;;;;;;;;29.00;24.00;;;;;7.03;77.33;100468.03;5078771;28;45198;-79
2021/11/21 03:10:43;;;;;;;;;36.50;29.25;;;;;7.03;77.08;100460.09;5077351;28;46322;-79
2021/11/21 03:13:08;;;;;;;;;30.75;26.50;;;;;7.02;77.21;100453.94;5078707;28;45222;-79
2021/11/21 03:15:34;;;;;;;;;38.50;27.75;;;;;7.04;77.36;100454.75;5078719;28;45254;-78
2021/11/21 03:18:01;;;;;;;;;37.75;28.00;;;;;7.08;77.21;100450.16;5078618;28;45234;-79
2021/11/21 03:20:29;;;;;;;;;29.75;26.25;;;;;7.05;77.04;100448.53;5077990;28;45644;-79
2021/11/21 03:22:57;;;;;;;;;34.25;27.50;;;;;7.04;77.39;100448.56;5078814;28;45162;-79
2021/11/21 03:25:23;;;;;;;;;32.00;24.75;;;;;7.00;76.99;100445.22;5078194;28;45257;-79
2021/11/21 03:27:49;;;;;;;;;29.50;25.50;;;;;6.99;76.95;100443.50;5078713;28;45506;-79
2021/11/21 03:30:18;;;;;;;;;32.25;25.25;;;;;7.00;77.26;100432.00;5078174;28;45402;-79
2021/11/21 03:32:44;;;;;;;;;39.00;29.50;;;;;7.06;77.58;100436.16;5078609;28;45805;-79
2021/11/21 03:35:09;;;;;;;;;36.00;29.25;;;;;7.05;77.44;100421.22;5078031;28;45178;-79
2021/11/21 03:37:36;;;;;;;;;30.75;22.50;;;;;7.09;77.22;100436.88;5078517;28;45344;-79
2021/11/21 03:40:05;;;;;;;;;30.25;25.75;;;;;7.10;76.81;100435.13;5077702;28;46218;-79
2021/11/21 03:42:31;;;;;;;;;37.00;30.50;;;;;7.11;77.23;100436.81;5078411;28;45714;-79
2021/11/21 03:44:56;;;;;;;;;28.50;27.25;;;;;7.12;77.28;100429.75;5077905;28;45418;-79
2021/11/21 03:47:22;;;;;;;;;27.75;25.00;;;;;7.09;77.31;100428.09;5078475;28;45101;-78
2021/11/21 03:49:47;;;;;;;;;33.25;30.00;;;;;7.13;77.26;100431.50;5078015;28;45189;-79
2021/11/21 03:52:12;;;;;;;;;40.25;27.75;;;;;7.12;77.02;100435.06;5077825;28;45170;-79
2021/11/21 03:54:38;;;;;;;;;31.25;24.75;;;;;7.06;76.80;100423.81;5077921;28;45214;-79
2021/11/21 03:57:04;;;;;;;;;36.25;26.50;;;;;7.11;77.00;100435.97;5077846;28;45222;-79
2021/11/21 03:59:29;;;;;;;;;26.25;24.00;;;;;7.06;77.04;100428.25;5077519;28;45353;-79
2021/11/21 04:01:55;;;;;;;;;35.25;25.50;;;;;7.08;77.24;100424.63;5078115;28;45288;-79
2021/11/21 04:04:21;;;;;;;;;30.75;22.50;;;;;7.05;77.19;100424.75;5078006;28;45252;-79
2021/11/21 04:06:47;;;;;;;;;28.25;25.50;;;;;7.02;76.94;100414.28;5077803;28;45240;-79
2021/11/21 04:09:13;;;;;;;;;28.25;24.75;;;;;7.06;76.97;100421.16;5059155;28;47087;-79
2021/11/21 04:11:38;;;;;;;;;26.00;25.00;;;;;7.07;77.28;100425.53;5077987;28;45182;-79
2021/11/21 04:14:03;;;;;;;;;24.75;22.50;;;;;7.00;76.76;100410.00;5076475;28;45199;-79
2021/11/21 04:16:29;;;;;;;;;27.75;22.50;;;;;7.03;77.22;100408.06;5078127;28;45246;-79
2021/11/21 04:18:55;;;;;;;;;28.75;25.75;;;;;7.04;77.03;100409.81;5077079;28;46140;-79
2021/11/21 04:21:20;;;;;;;;;30.25;23.50;;;;;7.04;77.20;100404.50;5077359;28;45206;-79
2021/11/21 04:23:46;;;;;;;;;24.00;20.75;;;;;7.01;76.79;100407.28;5077747;28;45244;-79
2021/11/21 04:26:11;;;;;;;;;25.00;19.75;;;;;6.99;77.19;100403.00;5059393;28;45254;-79
2021/11/21 04:28:37;;;;;;;;;28.50;23.00;;;;;7.05;76.98;100406.25;5077155;28;46974;-79
2021/11/21 04:31:04;;;;;;;;;26.25;21.75;;;;;7.04;77.31;100396.59;5076601;28;45250;-79
2021/11/21 04:33:29;;;;;;;;;30.00;25.00;;;;;7.08;77.44;100399.94;5077544;28;45195;-79
2021/11/21 04:35:54;;;;;;;;;26.00;19.75;;;;;7.07;77.24;100393.81;5077520;28;45175;-79
2021/11/21 04:38:22;;;;;;;;;32.00;21.75;;;;;7.08;77.74;100384.97;5077374;28;46405;-79
2021/11/21 04:40:48;;;;;;;;;27.75;21.25;;;;;7.00;77.41;100373.84;5077434;28;45670;-79
2021/11/21 04:43:15;;;;;;;;;29.50;23.50;;;;;7.08;77.58;100384.97;5077429;28;45325;-78
2021/11/21 04:45:40;;;;;;;;;26.50;21.25;;;;;7.13;77.50;100384.75;5077590;28;45107;-78
2021/11/21 04:48:06;;;;;;;;;26.00;22.50;;;;;7.13;77.63;100381.25;5077186;28;45208;-79
2021/11/21 04:50:31;;;;;;;;;26.75;23.75;;;;;7.11;77.22;100375.16;5077277;28;45230;-79
2021/11/21 04:52:56;;;;;;;;;22.50;18.50;;;;;7.09;77.32;100377.88;5076943;28;45605;-79
2021/11/21 04:55:22;;;;;;;;;26.25;23.75;;;;;7.02;77.19;100369.34;5041988;28;45484;-79
2021/11/21 04:57:47;;;;;;;;;30.00;23.25;;;;;7.03;77.33;100365.78;5076993;28;45952;-79
2021/11/21 05:00:16;;;;;;;;;31.00;20.75;;;;;7.02;77.86;100365.84;5076747;28;45230;-79
2021/11/21 05:02:46;;;;;;;;;34.75;25.25;;;;;7.00;77.33;100360.63;5076717;28;45321;-79
2021/11/21 05:05:13;;;;;;;;;26.75;22.25;;;;;7.05;77.79;100369.22;5059132;28;45142;-79
2021/11/21 05:07:39;;;;;;;;;27.00;23.00;;;;;7.06;77.88;100363.00;5076986;28;45244;-79
2021/11/21 05:10:06;;;;;;;;;26.25;21.50;;;;;7.09;77.71;100373.44;5076602;28;45154;-79
2021/11/21 05:12:32;;;;;;;;;10.75;9.75;;;;;7.10;77.35;100363.72;5077167;28;45223;-79
2021/11/21 05:14:59;;;;;;;;;29.50;19.50;;;;;7.08;77.92;100358.50;5076783;28;45241;-79
2021/11/21 05:17:25;;;;;;;;;24.50;20.00;;;;;7.08;77.88;100347.94;5076709;28;46371;-79
2021/11/21 05:19:50;;;;;;;;;21.25;18.00;;;;;7.11;77.63;100357.50;5076121;28;45224;-79
2021/11/21 05:22:16;;;;;;;;;24.50;18.25;;;;;7.13;77.26;100347.72;5077249;28;45224;-79
2021/11/21 05:24:41;;;;;;;;;22.75;20.75;;;;;7.11;77.69;100340.78;5076652;28;45238;-79
2021/11/21 05:27:06;;;;;;;;;18.75;16.50;;;;;7.14;77.72;100344.16;5076283;28;45373;-79
2021/11/21 05:29:32;;;;;;;;;23.50;18.25;;;;;7.16;77.35;100344.09;5076806;28;45197;-79
2021/11/21 05:31:57;;;;;;;;;22.33;17.00;;;;;7.13;77.50;100339.78;5076891;28;45212;-79
2021/11/21 05:34:22;;;;;;;;;35.25;21.75;;;;;7.11;77.19;100340.78;5078831;28;45189;-79
2021/11/21 05:36:48;;;;;;;;;20.00;18.00;;;;;7.12;77.46;100339.88;5080418;28;45330;-79
2021/11/21 05:39:13;;;;;;;;;20.50;18.25;;;;;7.12;77.19;100335.44;5079908;28;45260;-79
2021/11/21 05:41:39;;;;;;;;;24.75;18.00;;;;;7.14;77.54;100340.66;5080334;28;45266;-79
2021/11/21 05:44:05;;;;;;;;;26.25;19.50;;;;;7.18;77.66;100350.16;5080247;28;45162;-79
2021/11/21 05:46:31;;;;;;;;;18.25;16.75;;;;;7.20;77.56;100346.53;5080023;28;46076;-79
2021/11/21 05:48:56;;;;;;;;;23.50;22.25;;;;;7.17;77.65;100343.16;5079710;28;45234;-79
2021/11/21 05:51:21;;;;;;;;;24.25;19.25;;;;;7.12;77.58;100340.72;5080221;28;45178;-79
2021/11/21 05:53:47;;;;;;;;;18.67;17.67;;;;;7.11;77.14;100341.63;5080049;28;45177;-79
2021/11/21 05:56:12;;;;;;;;;25.75;20.75;;;;;7.08;77.62;100334.72;5079690;28;45269;-79
2021/11/21 05:58:37;;;;;;;;;22.50;20.00;;;;;7.04;77.62;100322.56;5078802;28;45356;-79
2021/11/21 06:01:03;;;;;;;;;24.00;20.50;;;;;7.01;77.51;100327.13;5079861;28;45170;-79
2021/11/21 06:03:29;;;;;;;;;19.25;16.00;;;;;7.01;77.71;100325.34;5079712;28;45134;-79
2021/11/21 06:05:54;;;;;;;;;24.00;20.00;;;;;7.00;77.66;100325.41;5079458;28;45649;-79
2021/11/21 06:08:19;;;;;;;;;26.00;19.75;;;;;6.98;77.83;100316.69;5078944;28;45312;-79
2021/11/21 06:10:45;;;;;;;;;25.75;21.00;;;;;6.98;77.83;100319.31;5079781;28;45202;-78
2021/11/21 06:13:11;;;;;;;;;29.75;20.75;;;;;6.98;77.83;100306.09;5079624;28;45210;-78
2021/11/21 06:15:37;;;;;;;;;20.00;17.50;;;;;7.02;78.04;100318.25;5079423;28;46003;-78
2021/11/21 06:18:04;;;;;;;;;21.25;19.00;;;;;7.07;78.76;100311.84;5079352;28;45663;-78
2021/11/21 06:20:29;;;;;;;;;21.75;18.75;;;;;7.14;78.53;100306.28;5078834;28;45273;-79
2021/11/21 06:22:55;;;;;;;;;25.75;19.25;;;;;7.24;78.28;100307.59;5079925;28;45129;-79
2021/11/21 06:25:20;;;;;;;;;21.00;17.00;;;;;7.32;78.43;100308.09;5078958;28;46221;-79
2021/11/21 06:27:45;;;;;;;;;19.75;15.75;;;;;7.40;78.29;100303.31;5060826;28;46020;-78
2021/11/21 06:30:11;;;;;;;;;13.50;13.25;;;;;7.48;77.82;100315.31;5079104;28;45217;-79
2021/11/21 06:32:37;;;;;;;;;18.75;13.25;;;;;7.50;77.88;100309.03;5079548;28;45352;-79
2021/11/21 06:35:03;;;;;;;;;20.00;18.25;;;;;7.60;77.79;100309.47;5078779;28;45226;-79
2021/11/21 06:37:29;;;;;;;;;21.00;15.00;;;;;7.65;77.43;100312.72;5078853;28;45297;-78
2021/11/21 06:39:54;;;;;;;;;18.75;16.50;;;;;7.70;77.44;100316.03;5060560;28;45223;-79
2021/11/21 06:42:20;;;;;;;;;19.25;13.75;;;;;7.75;76.96;100311.41;5061183;28;45161;-79
2021/11/21 06:44:45;;;;;;;;;13.25;13.25;;;;;7.78;77.14;100305.94;5078691;28;45999;-79
2021/11/21 06:47:13;;;;;;;;;16.50;12.00;;;;;7.81;77.23;100304.94;5079062;28;45207;-79
2021/11/21 06:49:38;;;;;;;;;14.25;12.25;;;;;7.86;76.92;100307.38;5078989;28;45214;-79
2021/11/21 06:52:04;;;;;;;;;16.75;13.50;;;;;7.90;76.74;100308.94;5079135;28;45124;-79
2021/11/21 06:54:29;;;;;;;;;15.25;13.00;;;;;7.85;76.52;100298.59;5078770;28;45450;-79
2021/11/21 06:56:55;;;;;;;;;15.00;12.50;;;;;7.96;76.21;100316.56;5078782;28;45160;-79
2021/11/21 06:59:20;;;;;;;;;13.50;11.25;;;;;7.95;76.47;100309.56;5060665;28;45366;-79
2021/11/21 07:01:46;;;;;;;;;16.25;12.25;;;;;7.97;76.54;100306.84;5079382;28;45219;-79
2021/11/21 07:04:11;;;;;;;;;16.00;14.25;;;;;7.96;76.23;100305.97;5078514;28;45931;-79
2021/11/21 07:06:39;;;;;;;;;14.00;13.75;;;;;8.02;76.26;100310.97;5078819;28;45232;-79
2021/11/21 07:09:08;;;;;;;;;18.00;15.00;;;;;8.01;75.84;100303.97;5060255;28;45193;-79
2021/11/21 07:11:36;;;;;;;;;12.00;11.50;;;;;8.05;76.15;100299.38;5061357;28;45242;-79
2021/11/21 07:14:02;;;;;;;;;16.25;13.00;;;;;8.06;75.87;100299.31;5078399;28;46598;-79
2021/11/21 07:16:27;;;;;;;;;20.75;18.25;;;;;8.08;76.13;100297.47;5078445;28;45218;-79
2021/11/21 07:18:53;;;;;;;;;19.25;14.75;;;;;8.04;75.69;100285.28;5078354;28;45429;-79
2021/11/21 07:21:19;;;;;;;;;16.00;16.00;;;;;7.97;75.80;100289.19;5078742;28;45194;-79
2021/11/21 07:23:44;;;;;;;;;17.50;14.00;;;;;7.87;75.55;100291.41;5078423;28;45985;-79
2021/11/21 07:26:10;;;;;;;;;21.75;16.25;;;;;7.76;75.80;100285.78;5078661;28;45268;-79
2021/11/21 07:28:36;;;;;;;;;17.50;14.25;;;;;7.71;75.93;100290.41;5078034;28;45227;-79
2021/11/21 07:31:02;;;;;;;;;23.75;14.75;;;;;7.65;76.48;100293.38;5078600;28;45201;-79
2021/11/21 07:33:27;;;;;;;;;17.25;14.00;;;;;7.56;76.39;100289.38;5078240;28;45566;-79
2021/11/21 07:35:53;;;;;;;;;37.25;29.50;;;;;7.49;76.67;100285.28;5078318;28;45266;-79
2021/11/21 07:38:22;;;;;;;;;17.50;14.75;;;;;7.42;76.54;100285.59;5078305;28;45307;-79
2021/11/21 07:40:49;;;;;;;;;16.25;12.25;;;;;7.45;77.35;100292.50;5078384;28;45350;-79
2021/11/21 07:43:14;;;;;;;;;14.75;13.25;;;;;7.44;77.02;100296.09;5078316;28;45853;-79
2021/11/21 07:45:40;;;;;;;;;16.75;13.00;;;;;7.39;77.01;100291.00;5078121;28;45269;-79
2021/11/21 07:48:05;;;;;;;;;16.25;13.75;;;;;7.40;77.21;100290.09;5078166;28;45197;-79
2021/11/21 07:50:31;;;;;;;;;17.50;13.00;;;;;7.44;77.36;100296.09;5078482;28;45090;-79
2021/11/21 07:52:57;;;;;;;;;16.00;13.75;;;;;7.45;77.42;100296.94;5077874;28;45233;-79
2021/11/21 07:55:22;;;;;;;;;20.50;15.00;;;;;7.45;77.18;100296.94;5077726;28;45167;-79
2021/11/21 07:57:47;;;;;;;;;21.25;14.00;;;;;7.51;77.19;100307.22;5077325;28;45209;-79
2021/11/21 08:00:14;;;;;;;;;23.00;16.75;;;;;7.53;77.40;100313.34;5077883;28;45150;-79
2021/11/21 08:05:14;;;;;;;;;16.00;13.25;;;;;7.54;76.95;100307.97;5102629;22;45655;-78
2021/11/21 08:07:40;;;;;;;;;24.00;15.50;;;;;7.53;77.50;100298.31;5081167;27;45260;-79
2021/11/21 08:10:07;;;;;;;;;20.00;14.25;;;;;7.49;77.41;100288.78;5099796;27;45233;-79
2021/11/21 08:12:33;;;;;;;;;16.75;15.00;;;;;7.43;77.16;100283.78;5098752;27;45189;-79
2021/11/21 08:14:59;;;;;;;;;20.75;15.25;;;;;7.36;77.48;100275.28;5099089;27;45336;-79
2021/11/21 08:17:24;;;;;;;;;15.00;12.75;;;;;7.36;77.86;100283.22;5099829;27;45546;-79
2021/11/21 08:19:49;;;;;;;;;14.25;13.25;;;;;7.30;77.82;100278.22;5098762;27;45129;-79
2021/11/21 08:22:15;;;;;;;;;19.75;13.75;;;;;7.33;77.67;100282.50;5098356;27;46092;-79
2021/11/21 08:24:40;;;;;;;;;18.00;12.00;;;;;7.30;77.51;100285.31;5099228;27;45204;-79
2021/11/21 08:27:06;;;;;;;;;14.00;12.75;;;;;7.31;77.70;100287.00;5080589;27;45285;-79
2021/11/21 08:29:31;;;;;;;;;21.00;15.25;;;;;7.27;78.30;100278.38;5079982;27;45559;-79
2021/11/21 08:31:58;;;;;;;;;20.00;15.25;;;;;7.34;78.08;100289.50;5080137;27;46980;-79
2021/11/21 08:34:23;;;;;;;;;13.50;11.75;;;;;7.34;78.22;100285.09;5098148;27;45303;-79
2021/11/21 08:36:52;;;;;;;;;14.50;12.00;;;;;7.40;78.36;100290.09;5080370;27;45182;-80
2021/11/21 08:39:22;;;;;;;;;14.25;12.50;;;;;7.50;78.41;100292.31;5099301;27;45188;-79
2021/11/21 08:41:48;;;;;;;;;18.50;14.25;;;;;7.57;78.33;100301.69;5098074;27;45388;-79
2021/11/21 08:44:14;;;;;;;;;17.00;13.00;;;;;7.60;77.94;100304.19;5097975;27;45829;-79
2021/11/21 08:46:39;;;;;;;;;15.50;12.00;;;;;7.64;78.23;100305.75;5098409;27;45210;-79
2021/11/21 08:49:05;;;;;;;;;18.25;15.50;;;;;7.63;77.75;100288.16;5098454;27;45281;-79
2021/11/21 08:51:30;;;;;;;;;12.00;12.00;;;;;7.66;77.58;100292.44;5098717;27;45213;-78
2021/11/21 08:53:55;;;;;;;;;17.50;13.00;;;;;7.70;77.93;100294.88;5098199;27;45276;-79
2021/11/21 08:56:22;;;;;;;;;15.50;13.25;;;;;7.71;77.85;100288.66;5098611;27;45133;-79
2021/11/21 08:58:47;;;;;;;;;15.25;12.00;;;;;7.65;77.84;100278.34;5098342;27;45144;-79
2021/11/21 09:01:13;;;;;;;;;15.75;13.00;;;;;7.74;77.57;100282.34;5079643;27;48087;-79
2021/11/21 09:03:39;;;;;;;;;17.25;14.00;;;;;7.69;77.64;100279.91;5098311;27;45225;-79
2021/11/21 09:06:05;;;;;;;;;14.50;12.50;;;;;7.72;77.93;100282.41;5097961;27;45102;-79
2021/11/21 09:08:30;;;;;;;;;12.50;12.25;;;;;7.82;78.27;100290.75;5096462;27;45186;-79
2021/11/21 09:10:56;;;;;;;;;19.00;15.25;;;;;7.90;78.03;100285.13;5097277;27;46220;-83
2021/11/21 09:13:22;;;;;;;;;20.50;16.00;;;;;7.94;77.81;100284.88;5097806;27;45288;-83
2021/11/21 09:15:48;;;;;;;;;15.25;12.50;;;;;7.98;78.19;100274.13;5097524;27;45302;-83
2021/11/21 09:18:14;;;;;;;;;12.25;11.75;;;;;8.02;77.76;100278.34;5097540;27;45290;-83
2021/11/21 09:20:40;;;;;;;;;20.25;14.50;;;;;8.07;77.97;100279.00;5097221;27;46305;-83
2021/11/21 09:23:11;;;;;;;;;27.75;22.00;;;;;8.15;77.82;100291.84;5097369;27;45544;-83
2021/11/21 09:25:37;;;;;;;;;73.75;57.00;;;;;8.22;77.67;100286.19;5097586;27;45231;-84
2021/11/21 09:28:03;;;;;;;;;18.75;16.50;;;;;8.26;77.63;100276.28;5079078;27;45265;-83
2021/11/21 09:30:29;;;;;;;;;33.00;25.25;;;;;8.33;77.17;100282.97;5096856;27;46106;-85
2021/11/21 09:32:54;;;;;;;;;21.00;19.25;;;;;8.33;77.28;100282.97;5097348;27;45266;-83
2021/11/21 09:35:21;;;;;;;;;15.75;15.75;;;;;8.37;77.26;100284.53;5097220;27;45182;-83
2021/11/21 09:37:47;;;;;;;;;33.25;30.00;;;;;8.41;77.57;100288.75;5098050;27;45304;-84
2021/11/21 09:40:14;;;;;;;;;24.25;22.50;;;;;8.45;77.44;100287.72;5096515;27;46213;-82
2021/11/21 09:42:41;;;;;;;;;27.25;22.75;;;;;8.49;77.50;100279.59;5097339;27;45764;-84
2021/11/21 09:45:08;;;;;;;;;24.00;15.00;;;;;8.52;77.25;100276.78;5097409;27;45228;-83
2021/11/21 09:47:34;;;;;;;;;17.00;14.50;;;;;8.53;77.09;100271.41;5079162;27;45281;-83
2021/11/21 09:50:08;;;;;;;;;17.00;16.75;;;;;8.52;77.04;100266.19;5096896;27;46402;-83
2021/11/21 09:52:34;;;;;;;;;31.50;27.50;;;;;8.63;77.46;100277.09;5096935;27;45443;-82
2021/11/21 09:54:59;;;;;;;;;28.25;26.00;;;;;8.61;77.20;100266.56;5097207;27;45223;-82
2021/11/21 09:57:25;;;;;;;;;44.25;35.00;;;;;8.71;77.17;100276.72;5097418;27;45297;-84
2021/11/21 10:00:02;;;;;;;;;26.00;22.50;;;;;8.79;76.84;100285.09;5078059;27;48153;-83
2021/11/21 10:02:34;;;;;;;;;22.25;19.25;;;;;8.83;76.83;100281.34;5096521;27;45851;-82
2021/11/21 10:05:05;;;;;;;;;26.25;21.50;;;;;8.88;76.91;100278.44;5096607;27;45253;-82
2021/11/21 10:07:34;;;;;;;;;22.75;19.25;;;;;8.90;76.86;100280.09;5097440;27;45212;-83
2021/11/21 10:10:00;;;;;;;;;20.00;15.00;;;;;8.92;76.47;100280.88;5096647;27;46214;-86
2021/11/21 10:12:34;;;;;;;;;32.50;28.75;;;;;8.93;76.87;100279.06;5096600;27;45135;-86
2021/11/21 10:15:19;;;;;;;;;26.75;22.50;;;;;8.96;76.67;100278.91;5097101;27;45344;-84
2021/11/21 10:17:50;;;;;;;;;18.50;15.00;;;;;8.95;76.55;100272.75;5096603;27;45335;-84
2021/11/21 10:20:20;;;;;;;;;19.50;17.75;;;;;9.05;76.20;100280.22;5098294;27;45671;-83
2021/11/21 10:22:51;;;;;;;;;20.75;18.00;;;;;9.10;76.16;100278.19;5100142;27;45193;-85
2021/11/21 10:25:36;;;;;;;;;25.75;22.75;;;;;9.15;76.50;100273.50;5100472;27;45320;-84
2021/11/21 10:28:06;;;;;;;;;26.50;23.25;;;;;9.18;76.45;100270.66;5099901;27;45185;-84
2021/11/21 10:30:31;;;;;;;;;15.00;14.75;;;;;9.19;76.00;100274.16;5099817;27;47075;-83
2021/11/21 10:33:03;;;;;;;;;21.00;17.50;;;;;9.20;76.24;100271.44;5081522;27;45312;-84
2021/11/21 10:35:28;;;;;;;;;23.00;19.50;;;;;9.21;76.21;100278.47;5100260;27;45174;-85
2021/11/21 10:37:57;;;;;;;;;16.00;15.75;;;;;9.22;76.12;100277.53;5100132;27;45240;-84
2021/11/21 10:40:23;;;;;;;;;20.50;16.50;;;;;9.26;76.17;100275.56;5099854;27;45933;-84
2021/11/21 10:42:52;;;;;;;;;22.50;18.25;;;;;9.28;76.12;100271.03;5099708;27;45802;-84
2021/11/21 10:45:27;;;;;;;;;24.25;19.75;;;;;9.33;75.94;100268.97;5100226;27;45244;-84
2021/11/21 10:47:58;;;;;;;;;27.00;26.00;;;;;9.36;75.69;100265.28;5099935;27;45209;-85
2021/11/21 10:50:38;;;;;;;;;37.50;32.00;;;;;9.35;75.61;100260.91;5099509;27;46965;-84
2021/11/21 10:53:08;;;;;;;;;28.25;25.00;;;;;9.37;76.07;100259.06;5099232;27;45348;-84
2021/11/21 10:55:35;;;;;;;;;24.00;21.50;;;;;9.37;75.83;100254.59;5099819;27;45245;-84
2021/11/21 10:58:20;;;;;;;;;22.50;18.50;;;;;9.37;75.96;100257.25;5099685;27;45270;-84
2021/11/21 11:00:56;;;;;;;;;23.25;20.75;;;;;9.42;75.86;100259.63;5098924;27;47345;-83
2021/11/21 11:03:22;;;;;;;;;28.50;24.75;;;;;9.44;76.01;100252.47;5098887;27;45808;-83
2021/11/21 11:05:48;;;;;;;;;23.00;19.25;;;;;9.48;75.66;100256.66;5099603;27;45284;-83
2021/11/21 11:08:25;;;;;;;;;21.25;18.25;;;;;9.52;75.61;100255.56;5099627;27;45143;-83
2021/11/21 11:10:50;;;;;;;;;18.00;17.00;;;;;9.54;75.57;100256.31;5099320;27;45073;-83
2021/11/21 11:13:15;;;;;;;;;23.50;17.75;;;;;9.54;75.72;100245.69;5099456;27;45053;-83
2021/11/21 11:15:45;;;;;;;;;24.00;20.50;;;;;9.59;75.95;100248.97;5081224;27;45193;-83